createdAt,value
2019-06-08T00:01:20.489Z,4.93
2019-06-08T00:03:46.806Z,5.00
2019-06-08T00:06:13.020Z,5.03
2019-06-08T00:08:39.205Z,4.80
2019-06-08T00:11:05.372Z,5.17
2019-06-08T00:13:31.589Z,5.20
2019-06-08T00:15:57.844Z,6.53
2019-06-08T00:18:24.287Z,6.10
2019-06-08T00:20:50.662Z,7.47
2019-06-08T00:23:17.668Z,8.03
2019-06-08T00:25:43.936Z,7.70
2019-06-08T00:28:10.152Z,7.73
2019-06-08T00:30:37.231Z,7.83
2019-06-08T00:33:03.693Z,7.37
2019-06-08T00:35:29.901Z,8.23
2019-06-08T00:37:56.104Z,7.40
2019-06-08T00:40:23.109Z,9.17
2019-06-08T00:42:49.437Z,8.80
2019-06-08T00:45:15.697Z,7.97
2019-06-08T00:47:48.013Z,8.93
2019-06-08T00:50:10.469Z,8.60
2019-06-08T00:52:36.662Z,7.40
2019-06-08T00:55:04.719Z,8.87
2019-06-08T00:57:30.970Z,9.33
2019-06-08T00:59:57.214Z,8.77
2019-06-08T01:02:24.572Z,9.00
2019-06-08T01:04:50.996Z,8.20
2019-06-08T01:07:17.924Z,8.17
2019-06-08T01:09:44.226Z,8.40
2019-06-08T01:12:10.606Z,8.80
2019-06-08T01:14:36.769Z,10.63
2019-06-08T01:17:03.154Z,8.53
2019-06-08T01:19:29.803Z,10.03
2019-06-08T01:21:56.314Z,7.87
2019-06-08T01:24:23.711Z,15.50
2019-06-08T01:26:50.066Z,15.73
2019-06-08T01:29:16.250Z,14.93
2019-06-08T01:31:42.399Z,14.73
2019-06-08T01:34:08.621Z,15.93
2019-06-08T01:36:34.808Z,15.67
2019-06-08T01:39:00.954Z,14.90
2019-06-08T01:41:27.752Z,16.77
2019-06-08T01:43:54.035Z,17.13
2019-06-08T01:46:20.193Z,16.07
2019-06-08T01:48:46.400Z,14.40
2019-06-08T01:51:12.591Z,14.90
2019-06-08T01:53:38.883Z,14.53
2019-06-08T01:56:05.070Z,11.23
2019-06-08T01:58:31.496Z,10.87
2019-06-08T02:00:57.908Z,11.00
2019-06-08T02:03:24.114Z,9.53
2019-06-08T02:05:50.283Z,9.67
2019-06-08T02:08:16.436Z,8.27
2019-06-08T02:10:42.616Z,8.27
2019-06-08T02:13:09.032Z,8.70
2019-06-08T02:15:35.423Z,9.10
2019-06-08T02:18:01.664Z,8.00
2019-06-08T02:20:28.768Z,8.03
2019-06-08T02:22:55.147Z,7.13
2019-06-08T02:25:27.234Z,7.40
2019-06-08T02:27:54.011Z,7.30
2019-06-08T02:30:20.283Z,7.17
2019-06-08T02:32:46.470Z,6.93
2019-06-08T02:35:12.926Z,7.23
2019-06-08T02:37:39.894Z,6.30
2019-06-08T02:40:07.081Z,5.50
2019-06-08T02:42:35.283Z,5.43
2019-06-08T02:45:01.330Z,5.50
2019-06-08T02:47:28.417Z,5.63
2019-06-08T02:49:55.353Z,5.67
2019-06-08T02:52:21.616Z,6.03
2019-06-08T02:54:48.708Z,5.43
2019-06-08T02:57:15.497Z,5.37
2019-06-08T02:59:43.059Z,4.67
2019-06-08T03:02:10.067Z,5.13
2019-06-08T03:04:38.534Z,5.00
2019-06-08T03:07:04.797Z,4.63
2019-06-08T03:09:32.475Z,4.33
2019-06-08T03:12:01.482Z,4.30
2019-06-08T03:14:27.750Z,4.47
2019-06-08T03:16:54.234Z,4.73
2019-06-08T03:19:22.649Z,4.83
2019-06-08T03:21:48.470Z,4.53
2019-06-08T03:24:14.667Z,4.30
2019-06-08T03:26:41.843Z,4.60
2019-06-08T03:29:08.915Z,4.40
2019-06-08T03:31:42.567Z,4.03
2019-06-08T03:34:03.169Z,3.40
2019-06-08T03:36:29.342Z,3.80
2019-06-08T03:38:55.526Z,3.57
2019-06-08T03:41:21.864Z,3.37
2019-06-08T03:43:48.040Z,3.60
2019-06-08T03:46:14.233Z,3.60
2019-06-08T03:48:42.194Z,3.10
2019-06-08T03:51:08.459Z,3.17
2019-06-08T03:53:35.697Z,3.10
2019-06-08T03:56:02.516Z,3.00
2019-06-08T03:58:28.692Z,3.33
2019-06-08T04:00:54.877Z,3.53
2019-06-08T04:03:21.031Z,3.23
2019-06-08T04:05:47.218Z,3.77
2019-06-08T04:08:13.424Z,3.73
2019-06-08T04:10:39.983Z,3.73
2019-06-08T04:13:11.382Z,3.53
2019-06-08T04:15:35.783Z,4.07
2019-06-08T04:18:01.973Z,4.47
2019-06-08T04:20:28.144Z,5.63
2019-06-08T04:22:54.385Z,4.73
2019-06-08T04:25:20.570Z,5.20
2019-06-08T04:27:47.070Z,4.73
2019-06-08T04:30:14.940Z,4.87
2019-06-08T04:32:42.725Z,4.50
2019-06-08T04:35:09.577Z,4.63
2019-06-08T04:37:35.756Z,4.73
2019-06-08T04:40:05.818Z,5.13
2019-06-08T04:42:31.972Z,5.00
2019-06-08T04:44:58.257Z,5.40
2019-06-08T04:47:24.416Z,5.37
2019-06-08T04:49:50.593Z,5.53
2019-06-08T04:52:16.796Z,5.83
2019-06-08T04:54:42.953Z,5.50
2019-06-08T04:57:09.739Z,5.00
2019-06-08T04:59:35.927Z,5.67
2019-06-08T05:02:02.083Z,4.73
2019-06-08T05:04:28.287Z,3.87
2019-06-08T05:06:54.499Z,4.33
2019-06-08T05:09:20.655Z,3.30
2019-06-08T05:11:47.438Z,3.10
2019-06-08T05:14:13.920Z,3.73
2019-06-08T05:16:41.212Z,3.10
2019-06-08T05:19:07.646Z,4.13
2019-06-08T05:21:34.101Z,4.73
2019-06-08T05:24:01.315Z,5.57
2019-06-08T05:26:27.575Z,5.27
2019-06-08T05:28:53.769Z,5.40
2019-06-08T05:31:19.954Z,5.20
2019-06-08T05:33:47.526Z,5.50
2019-06-08T05:36:13.920Z,5.73
2019-06-08T05:38:41.533Z,5.67
2019-06-08T05:41:07.966Z,5.90
2019-06-08T05:43:34.154Z,5.80
2019-06-08T05:46:00.306Z,5.50
2019-06-08T05:48:26.482Z,6.10
2019-06-08T05:51:03.074Z,5.67
2019-06-08T05:53:20.787Z,5.60
2019-06-08T05:55:47.982Z,5.70
2019-06-08T05:58:14.440Z,5.60
2019-06-08T06:00:42.061Z,5.33
2019-06-08T06:03:08.595Z,5.67
2019-06-08T06:05:34.794Z,5.83
2019-06-08T06:08:00.950Z,4.63
2019-06-08T06:10:27.168Z,5.00
2019-06-08T06:12:53.425Z,6.13
2019-06-08T06:15:19.700Z,6.17
2019-06-08T06:17:46.643Z,5.97
2019-06-08T06:20:14.589Z,5.53
2019-06-08T06:22:42.028Z,5.00
2019-06-08T06:25:08.916Z,4.40
2019-06-08T06:27:35.187Z,4.50
2019-06-08T06:30:02.980Z,4.83
2019-06-08T06:32:29.229Z,5.63
2019-06-08T06:34:57.586Z,5.10
2019-06-08T06:37:23.870Z,5.33
2019-06-08T06:39:52.283Z,5.60
2019-06-08T06:42:18.983Z,5.63
2019-06-08T06:44:46.837Z,5.57
2019-06-08T06:47:13.327Z,5.07
2019-06-08T06:49:42.413Z,5.40
2019-06-08T06:52:07.592Z,5.63
2019-06-08T06:54:33.761Z,5.20
2019-06-08T06:56:59.964Z,5.10
2019-06-08T06:59:26.117Z,5.43
2019-06-08T07:01:56.857Z,5.70
2019-06-08T07:04:20.497Z,6.60
2019-06-08T07:06:50.116Z,6.33
2019-06-08T07:09:16.538Z,5.60
2019-06-08T07:11:42.748Z,5.90
2019-06-08T07:14:08.934Z,6.70
2019-06-08T07:16:47.759Z,5.70
2019-06-08T07:19:08.845Z,5.70
2019-06-08T07:21:41.708Z,5.53
2019-06-08T07:24:04.867Z,6.57
2019-06-08T07:26:31.103Z,5.50
2019-06-08T07:28:57.279Z,5.63
2019-06-08T07:31:23.533Z,5.53
2019-06-08T07:33:51.880Z,5.30
2019-06-08T07:36:17.813Z,5.47
2019-06-08T07:38:43.968Z,5.60
2019-06-08T07:41:10.176Z,5.00
2019-06-08T07:43:36.347Z,4.43
2019-06-08T07:46:03.509Z,5.20
2019-06-08T07:48:29.700Z,5.10
2019-06-08T07:50:56.385Z,4.67
2019-06-08T07:53:22.769Z,5.00
2019-06-08T07:55:50.051Z,4.43
2019-06-08T07:58:16.662Z,4.37
2019-06-08T08:00:42.819Z,4.57
2019-06-08T08:03:09.037Z,4.43
2019-06-08T08:05:35.195Z,4.43
2019-06-08T08:08:01.358Z,5.10
2019-06-08T08:10:27.571Z,4.50
2019-06-08T08:12:54.765Z,4.50
2019-06-08T08:15:21.048Z,4.50
2019-06-08T08:17:47.255Z,4.20
2019-06-08T08:20:13.408Z,4.03
2019-06-08T08:22:39.873Z,4.60
2019-06-08T08:25:08.251Z,4.60
2019-06-08T08:27:34.670Z,4.13
2019-06-08T08:30:02.092Z,4.40
2019-06-08T08:32:28.643Z,4.93
2019-06-08T08:34:58.412Z,5.33
2019-06-08T08:37:22.862Z,4.27
2019-06-08T08:39:50.192Z,4.23
2019-06-08T08:42:18.034Z,3.93
2019-06-08T08:44:44.400Z,4.67
2019-06-08T08:47:10.605Z,4.70
2019-06-08T08:49:38.084Z,4.43
2019-06-08T08:52:04.561Z,4.70
2019-06-08T08:54:30.890Z,4.67
2019-06-08T08:57:02.915Z,4.20
2019-06-08T08:59:25.253Z,3.63
2019-06-08T09:01:52.827Z,4.03
2019-06-08T09:04:19.137Z,4.07
2019-06-08T09:06:45.312Z,4.10
2019-06-08T09:09:11.501Z,4.33
2019-06-08T09:11:38.396Z,3.93
2019-06-08T09:14:10.946Z,4.20
2019-06-08T09:16:33.864Z,3.97
2019-06-08T09:19:02.890Z,4.30
2019-06-08T09:21:28.309Z,4.00
2019-06-08T09:23:55.852Z,4.53
2019-06-08T09:26:22.878Z,4.43
2019-06-08T09:28:49.032Z,4.27
2019-06-08T09:31:15.258Z,4.57
2019-06-08T09:33:41.403Z,4.53
2019-06-08T09:36:08.171Z,4.30
2019-06-08T09:38:34.789Z,4.20
2019-06-08T09:41:03.516Z,4.60
2019-06-08T09:43:29.095Z,4.00
2019-06-08T09:45:55.442Z,4.40
2019-06-08T09:48:23.481Z,4.70
2019-06-08T09:50:49.633Z,4.70
2019-06-08T09:53:27.935Z,4.03
2019-06-08T09:55:43.930Z,4.17
2019-06-08T09:58:11.899Z,4.37
2019-06-08T10:00:38.201Z,4.10
2019-06-08T10:03:06.262Z,5.00
2019-06-08T10:05:32.450Z,4.30
2019-06-08T10:08:00.883Z,4.47
2019-06-08T10:10:26.844Z,4.20
2019-06-08T10:12:54.494Z,4.13
2019-06-08T10:15:20.937Z,4.40
2019-06-08T10:17:47.574Z,4.40
2019-06-08T10:20:14.583Z,4.50
2019-06-08T10:22:42.580Z,4.57
2019-06-08T10:25:11.125Z,3.60
2019-06-08T10:27:38.586Z,3.43
2019-06-08T10:30:09.713Z,3.95
2019-06-08T10:32:34.446Z,4.50
2019-06-08T10:35:03.729Z,4.00
2019-06-08T10:37:28.740Z,3.50
2019-06-08T10:39:56.446Z,3.58
2019-06-08T10:42:22.990Z,3.70
2019-06-08T10:44:49.201Z,3.60
2019-06-08T10:47:15.385Z,3.55
2019-06-08T10:49:41.559Z,3.98
2019-06-08T10:52:10.637Z,3.30
2019-06-08T10:54:37.815Z,3.22
2019-06-08T10:57:06.711Z,3.65
2019-06-08T10:59:32.025Z,4.00
2019-06-08T11:02:00.982Z,3.60
2019-06-08T11:04:28.492Z,3.45
2019-06-08T11:06:54.421Z,3.67
2019-06-08T11:09:20.865Z,3.60
2019-06-08T11:11:48.106Z,3.90
2019-06-08T11:14:14.492Z,3.25
2019-06-08T11:16:40.792Z,3.58
2019-06-08T11:19:11.409Z,3.57
2019-06-08T11:21:38.529Z,3.92
2019-06-08T11:24:13.326Z,3.77
2019-06-08T11:26:31.725Z,3.40
2019-06-08T11:28:58.740Z,3.72
2019-06-08T11:31:28.183Z,3.52
2019-06-08T11:33:53.302Z,3.75
2019-06-08T11:36:19.499Z,4.12
2019-06-08T11:38:47.676Z,3.60
2019-06-08T11:41:13.961Z,3.65
2019-06-08T11:43:40.360Z,4.08
2019-06-08T11:46:06.723Z,3.92
2019-06-08T11:48:32.929Z,3.98
2019-06-08T11:51:00.532Z,3.40
2019-06-08T11:53:28.818Z,3.90
2019-06-08T11:55:55.118Z,4.20
2019-06-08T11:58:22.957Z,3.72
2019-06-08T12:00:53.488Z,3.72
2019-06-08T12:03:20.166Z,3.80
2019-06-08T12:05:47.758Z,3.90
2019-06-08T12:08:14.583Z,3.62
2019-06-08T12:10:41.136Z,3.60
2019-06-08T12:13:09.755Z,4.05
2019-06-08T12:15:35.632Z,3.55
2019-06-08T12:18:01.807Z,4.00
2019-06-08T12:20:28.119Z,3.40
2019-06-08T12:22:54.263Z,3.50
2019-06-08T12:25:20.454Z,3.77
2019-06-08T12:27:48.718Z,3.90
2019-06-08T12:30:21.717Z,3.67
2019-06-08T12:32:42.967Z,3.42
2019-06-08T12:35:10.922Z,3.45
2019-06-08T12:37:38.706Z,3.33
2019-06-08T12:40:05.000Z,3.67
2019-06-08T12:42:31.213Z,3.75
2019-06-08T12:44:58.764Z,3.75
2019-06-08T12:47:27.395Z,3.25
2019-06-08T12:49:55.318Z,3.55
2019-06-08T12:52:22.482Z,3.50
2019-06-08T12:55:00.218Z,3.08
2019-06-08T12:57:19.987Z,4.17
2019-06-08T12:59:45.542Z,3.22
2019-06-08T13:02:15.652Z,3.52
2019-06-08T13:04:39.831Z,3.27
2019-06-08T13:07:08.394Z,3.75
2019-06-08T13:09:38.215Z,3.23
2019-06-08T13:12:04.190Z,3.12
2019-06-08T13:14:30.342Z,3.80
2019-06-08T13:16:56.518Z,3.85
2019-06-08T13:19:22.726Z,3.10
2019-06-08T13:21:48.893Z,3.60
2019-06-08T13:24:15.302Z,3.22
2019-06-08T13:26:41.672Z,2.80
2019-06-08T13:29:09.191Z,3.70
2019-06-08T13:31:38.237Z,2.87
2019-06-08T13:34:04.092Z,3.40
2019-06-08T13:36:30.250Z,3.45
2019-06-08T13:38:56.425Z,3.60
2019-06-08T13:41:26.240Z,3.40
2019-06-08T13:43:50.704Z,3.10
2019-06-08T13:46:19.172Z,3.00
2019-06-08T13:48:44.973Z,3.07
2019-06-08T13:51:13.303Z,3.20
2019-06-08T13:53:39.244Z,3.08
2019-06-08T13:56:07.669Z,3.67
2019-06-08T13:58:33.855Z,4.03
2019-06-08T14:01:00.554Z,3.30
2019-06-08T14:03:27.751Z,3.72
2019-06-08T14:05:54.149Z,3.40
2019-06-08T14:08:22.390Z,3.10
2019-06-08T14:10:48.437Z,3.10
2019-06-08T14:13:15.162Z,3.30
2019-06-08T14:15:41.464Z,3.15
2019-06-08T14:18:08.800Z,3.20
2019-06-08T14:20:38.227Z,3.22
2019-06-08T14:23:03.524Z,3.50
2019-06-08T14:25:34.147Z,3.67
2019-06-08T14:27:57.896Z,3.50
2019-06-08T14:30:28.039Z,3.62
2019-06-08T14:32:52.962Z,3.30
2019-06-08T14:35:22.322Z,3.70
2019-06-08T14:37:48.172Z,3.30
2019-06-08T14:40:14.706Z,3.10
2019-06-08T14:42:40.892Z,3.08
2019-06-08T14:45:10.742Z,3.80
2019-06-08T14:47:37.630Z,2.72
2019-06-08T14:50:07.982Z,2.90
2019-06-08T14:52:34.096Z,3.20
2019-06-08T14:55:00.292Z,3.00
2019-06-08T14:57:28.204Z,3.80
2019-06-08T14:59:57.229Z,3.17
2019-06-08T15:02:23.515Z,3.22
2019-06-08T15:04:49.827Z,4.15
2019-06-08T15:07:20.081Z,3.65
2019-06-08T15:09:44.070Z,4.00
2019-06-08T15:12:10.269Z,3.93
2019-06-08T15:14:38.401Z,3.83
2019-06-08T15:17:04.541Z,3.10
2019-06-08T15:19:32.478Z,3.12
2019-06-08T15:21:58.793Z,3.00
2019-06-08T15:24:24.984Z,3.30
2019-06-08T15:26:51.171Z,3.20
2019-06-08T15:29:17.345Z,3.85
2019-06-08T15:31:43.528Z,4.00
2019-06-08T15:34:10.765Z,3.42
2019-06-08T15:36:38.170Z,3.30
2019-06-08T15:39:07.800Z,3.62
2019-06-08T15:41:34.104Z,3.83
2019-06-08T15:44:00.278Z,3.30
2019-06-08T15:46:26.466Z,3.25
2019-06-08T15:48:52.627Z,3.45
2019-06-08T15:51:18.802Z,3.43
2019-06-08T15:53:44.993Z,3.15
2019-06-08T15:56:11.167Z,3.67
2019-06-08T15:58:40.195Z,3.20
2019-06-08T16:01:06.127Z,3.37
2019-06-08T16:03:33.484Z,3.10
2019-06-08T16:05:59.853Z,3.50
2019-06-08T16:08:26.231Z,3.73
2019-06-08T16:10:52.432Z,4.03
2019-06-08T16:13:18.610Z,4.30
2019-06-08T16:15:44.799Z,4.37
2019-06-08T16:18:10.966Z,3.73
2019-06-08T16:20:37.139Z,4.67
2019-06-08T16:23:03.433Z,4.53
2019-06-08T16:25:29.753Z,4.47
2019-06-08T16:27:55.987Z,4.10
2019-06-08T16:30:22.176Z,4.30
2019-06-08T16:32:48.340Z,3.97
2019-06-08T16:35:14.565Z,4.47
2019-06-08T16:37:40.887Z,5.10
2019-06-08T16:40:07.047Z,4.10
2019-06-08T16:42:34.480Z,4.10
2019-06-08T16:45:00.816Z,4.57
2019-06-08T16:47:27.049Z,4.20
2019-06-08T16:49:53.265Z,4.17
2019-06-08T16:52:19.473Z,4.10
2019-06-08T16:54:45.626Z,4.23
2019-06-08T16:57:11.781Z,4.40
2019-06-08T16:59:38.686Z,4.30
2019-06-08T17:02:05.144Z,4.23
2019-06-08T17:04:31.399Z,4.93
2019-06-08T17:06:57.647Z,4.23
2019-06-08T17:09:23.805Z,4.77
2019-06-08T17:11:50.431Z,4.47
2019-06-08T17:14:16.826Z,4.60
2019-06-08T17:16:42.983Z,4.77
2019-06-08T17:19:09.156Z,6.07
2019-06-08T17:21:36.357Z,4.87
2019-06-08T17:24:02.635Z,4.97
2019-06-08T17:26:30.422Z,4.57
2019-06-08T17:28:56.824Z,7.03
2019-06-08T17:31:22.985Z,4.77
2019-06-08T17:33:49.167Z,5.17
2019-06-08T17:36:15.483Z,4.27
2019-06-08T17:38:41.699Z,5.03
2019-06-08T17:41:08.174Z,5.43
2019-06-08T17:43:34.578Z,4.43
2019-06-08T17:46:00.737Z,4.33
2019-06-08T17:48:26.918Z,5.87
2019-06-08T17:50:53.134Z,5.00
2019-06-08T17:53:19.298Z,5.87
2019-06-08T17:55:45.455Z,5.17
2019-06-08T17:58:11.664Z,5.07
2019-06-08T18:00:37.920Z,5.30
2019-06-08T18:03:04.096Z,5.10
2019-06-08T18:05:30.310Z,5.03
2019-06-08T18:07:57.840Z,5.17
2019-06-08T18:10:24.249Z,5.07
2019-06-08T18:12:50.486Z,5.63
2019-06-08T18:15:17.512Z,5.57
2019-06-08T18:17:45.258Z,5.37
2019-06-08T18:20:13.579Z,5.47
2019-06-08T18:22:42.877Z,6.00
2019-06-08T18:25:08.145Z,5.67
2019-06-08T18:27:34.642Z,5.83
2019-06-08T18:30:08.039Z,5.37
2019-06-08T18:32:29.222Z,5.63
2019-06-08T18:34:57.250Z,5.67
2019-06-08T18:37:23.515Z,6.10
2019-06-08T18:39:49.853Z,5.03
2019-06-08T18:42:17.939Z,5.63
2019-06-08T18:44:45.811Z,5.20
2019-06-08T18:47:12.496Z,5.37
2019-06-08T18:49:41.609Z,6.00
2019-06-08T18:52:08.114Z,5.37
2019-06-08T18:54:35.336Z,5.70
2019-06-08T18:57:05.833Z,5.80
2019-06-08T18:59:30.746Z,5.63
2019-06-08T19:01:57.037Z,5.37
2019-06-08T19:04:23.256Z,5.77
2019-06-08T19:06:50.122Z,5.37
2019-06-08T19:09:17.191Z,5.53
2019-06-08T19:11:43.620Z,5.53
2019-06-08T19:14:09.836Z,5.53
2019-06-08T19:16:36.961Z,5.63
2019-06-08T19:19:04.293Z,5.93
2019-06-08T19:21:30.454Z,6.13
2019-06-08T19:23:56.636Z,5.43
2019-06-08T19:26:22.852Z,6.43
2019-06-08T19:28:53.821Z,6.50
2019-06-08T19:31:17.601Z,6.70
2019-06-08T19:33:43.898Z,5.77
2019-06-08T19:36:10.364Z,6.00
2019-06-08T19:38:38.461Z,6.70
2019-06-08T19:41:04.913Z,6.43
2019-06-08T19:43:31.089Z,6.70
2019-06-08T19:45:58.063Z,7.47
2019-06-08T19:48:29.885Z,6.33
2019-06-08T19:50:54.365Z,6.73
2019-06-08T19:53:20.867Z,6.20
2019-06-08T19:55:52.044Z,6.57
2019-06-08T19:58:17.904Z,5.83
2019-06-08T20:00:44.248Z,7.00
2019-06-08T20:03:10.691Z,6.67
2019-06-08T20:05:37.801Z,7.17
2019-06-08T20:08:04.104Z,7.03
2019-06-08T20:10:30.323Z,6.47
2019-06-08T20:12:57.597Z,4.93
2019-06-08T20:15:24.256Z,5.20
2019-06-08T20:17:51.548Z,4.73
2019-06-08T20:20:18.427Z,3.83
2019-06-08T20:22:45.947Z,3.77
2019-06-08T20:25:12.945Z,3.30
2019-06-08T20:27:39.446Z,3.83
2019-06-08T20:30:09.567Z,3.43
2019-06-08T20:32:34.495Z,3.60
2019-06-08T20:35:00.670Z,4.07
2019-06-08T20:37:28.274Z,3.63
2019-06-08T20:40:09.011Z,4.00
2019-06-08T20:42:22.971Z,4.30
2019-06-08T20:44:51.578Z,3.97
2019-06-08T20:47:17.909Z,3.40
2019-06-08T20:49:48.660Z,4.30
2019-06-08T20:52:13.385Z,3.70
2019-06-08T20:54:39.579Z,4.07
2019-06-08T20:57:07.596Z,3.93
2019-06-08T20:59:34.458Z,3.90
2019-06-08T21:02:00.812Z,4.60
2019-06-08T21:04:27.633Z,3.87
2019-06-08T21:06:54.407Z,3.83
2019-06-08T21:09:20.761Z,4.60
2019-06-08T21:11:49.805Z,4.20
2019-06-08T21:14:17.329Z,4.30
2019-06-08T21:16:43.112Z,3.73
2019-06-08T21:19:09.264Z,4.50
2019-06-08T21:21:37.560Z,4.53
2019-06-08T21:24:03.524Z,4.67
2019-06-08T21:26:29.700Z,4.87
2019-06-08T21:29:00.129Z,5.00
2019-06-08T21:31:23.941Z,4.93
2019-06-08T21:33:52.134Z,5.03
2019-06-08T21:36:18.313Z,5.80
2019-06-08T21:38:44.594Z,4.90
2019-06-08T21:41:10.869Z,5.50
2019-06-08T21:43:37.516Z,4.90
2019-06-08T21:46:03.862Z,5.03
2019-06-08T21:48:30.245Z,4.80
2019-06-08T21:51:01.003Z,5.03
2019-06-08T21:53:24.724Z,5.10
2019-06-08T21:55:52.087Z,5.13
2019-06-08T21:58:18.381Z,5.27
2019-06-08T22:00:49.380Z,4.70
2019-06-08T22:03:17.440Z,5.43
2019-06-08T22:05:43.460Z,5.37
2019-06-08T22:08:09.666Z,5.40
2019-06-08T22:10:37.713Z,4.87
2019-06-08T22:13:03.917Z,5.50
2019-06-08T22:15:30.144Z,4.83
2019-06-08T22:17:59.686Z,5.33
2019-06-08T22:20:24.478Z,5.50
2019-06-08T22:22:51.772Z,4.67
2019-06-08T22:25:18.157Z,4.90
2019-06-08T22:27:44.305Z,4.50
2019-06-08T22:30:18.444Z,5.03
2019-06-08T22:32:39.376Z,5.33
2019-06-08T22:35:08.031Z,4.63
2019-06-08T22:37:33.972Z,4.53
2019-06-08T22:40:01.033Z,4.70
2019-06-08T22:42:29.144Z,4.53
2019-06-08T22:44:59.214Z,4.00
2019-06-08T22:47:23.762Z,4.70
2019-06-08T22:49:49.930Z,4.90
2019-06-08T22:52:18.496Z,4.50
2019-06-08T22:54:47.565Z,4.97
2019-06-08T22:57:13.307Z,4.80
2019-06-08T22:59:39.501Z,4.93
2019-06-08T23:02:08.800Z,4.27
2019-06-08T23:04:33.902Z,4.90
2019-06-08T23:07:04.016Z,4.73
2019-06-08T23:09:28.445Z,4.93
2019-06-08T23:11:55.544Z,4.53
2019-06-08T23:14:22.812Z,4.53
2019-06-08T23:16:48.980Z,4.43
2019-06-08T23:19:17.294Z,4.70
2019-06-08T23:21:43.266Z,4.67
2019-06-08T23:24:09.527Z,4.53
2019-06-08T23:26:37.239Z,4.57
2019-06-08T23:29:04.398Z,4.73
2019-06-08T23:31:30.686Z,4.50
2019-06-08T23:33:59.652Z,5.40
2019-06-08T23:36:51.605Z,5.07
2019-06-08T23:38:53.121Z,4.80
2019-06-08T23:41:19.291Z,5.40
2019-06-08T23:43:47.889Z,5.17
2019-06-08T23:46:13.662Z,4.67
2019-06-08T23:48:39.838Z,5.13
2019-06-08T23:51:09.082Z,5.13
2019-06-08T23:53:34.116Z,5.90
2019-06-08T23:56:02.294Z,5.90
2019-06-08T23:58:28.474Z,5.43
